sensor_id;sensor_type;location;lat;lon;timestamp;temperature;humidity
4002;DHT22;2015;48.670;9.060;2023-06-19T00:01:32;22.40;99.90
4002;DHT22;2015;48.670;9.060;2023-06-19T00:04:04;22.40;99.90
4002;DHT22;2015;48.670;9.060;2023-06-19T00:06:36;22.30;99.90
4002;DHT22;2015;48.670;9.060;2023-06-19T00:09:08;22.30;99.90
4002;DHT22;2015;48.670;9.060;2023-06-19T00:11:40;22.20;99.90
4002;DHT22;2015;48.670;9.060;2023-06-19T00:14:12;22.00;99.90
4002;DHT22;2015;48.670;9.060;2023-06-19T00:16:44;21.90;99.90
4002;DHT22;2015;48.670;9.060;2023-06-19T00:19:17;21.90;99.90
4002;DHT22;2015;48.670;9.060;2023-06-19T00:21:49;21.90;99.90
4002;DHT22;2015;48.670;9.060;2023-06-19T00:24:21;21.80;99.90
4002;DHT22;2015;48.670;9.060;2023-06-19T00:26:52;21.70;99.90
4002;DHT22;2015;48.670;9.060;2023-06-19T00:29:24;21.50;99.90
4002;DHT22;2015;48.670;9.060;2023-06-19T00:31:59;21.40;99.90
4002;DHT22;2015;48.670;9.060;2023-06-19T00:34:31;21.40;99.90
4002;DHT22;2015;48.670;9.060;2023-06-19T00:37:03;21.40;99.90
4002;DHT22;2015;48.670;9.060;2023-06-19T00:39:35;21.30;99.90
4002;DHT22;2015;48.670;9.060;2023-06-19T00:42:07;21.20;99.90
4002;DHT22;2015;48.670;9.060;2023-06-19T00:44:39;21.10;99.90
4002;DHT22;2015;48.670;9.060;2023-06-19T00:47:11;21.10;99.90
4002;DHT22;2015;48.670;9.060;2023-06-19T00:49:43;21.00;99.90
4002;DHT22;2015;48.670;9.060;2023-06-19T00:52:16;20.90;99.90
4002;DHT22;2015;48.670;9.060;2023-06-19T00:54:48;20.90;99.90
4002;DHT22;2015;48.670;9.060;2023-06-19T00:57:20;20.90;99.90
4002;DHT22;2015;48.670;9.060;2023-06-19T00:59:52;20.80;99.90
4002;DHT22;2015;48.670;9.060;2023-06-19T01:02:25;20.70;99.90
4002;DHT22;2015;48.670;9.060;2023-06-19T01:04:57;20.70;99.90
4002;DHT22;2015;48.670;9.060;2023-06-19T01:10:08;20.70;99.90
4002;DHT22;2015;48.670;9.060;2023-06-19T01:12:46;20.70;99.90
4002;DHT22;2015;48.670;9.060;2023-06-19T01:15:22;20.70;99.90
4002;DHT22;2015;48.670;9.060;2023-06-19T01:17:56;20.70;99.90
4002;DHT22;2015;48.670;9.060;2023-06-19T01:20:29;20.70;99.90
4002;DHT22;2015;48.670;9.060;2023-06-19T01:23:09;20.80;99.90
4002;DHT22;2015;48.670;9.060;2023-06-19T01:25:42;21.10;99.90
4002;DHT22;2015;48.670;9.060;2023-06-19T01:28:14;21.20;99.90
4002;DHT22;2015;48.670;9.060;2023-06-19T01:30:45;21.20;99.90
4002;DHT22;2015;48.670;9.060;2023-06-19T01:33:23;21.30;99.90
4002;DHT22;2015;48.670;9.060;2023-06-19T01:35:58;21.30;99.90
4002;DHT22;2015;48.670;9.060;2023-06-19T01:38:31;21.40;99.90
4002;DHT22;2015;48.670;9.060;2023-06-19T01:41:04;21.40;99.90
4002;DHT22;2015;48.670;9.060;2023-06-19T01:43:39;21.40;99.90
4002;DHT22;2015;48.670;9.060;2023-06-19T01:46:11;21.40;99.90
4002;DHT22;2015;48.670;9.060;2023-06-19T01:48:43;21.30;99.90
4002;DHT22;2015;48.670;9.060;2023-06-19T01:51:15;21.10;99.90
4002;DHT22;2015;48.670;9.060;2023-06-19T01:53:47;21.10;99.90
4002;DHT22;2015;48.670;9.060;2023-06-19T01:56:19;21.00;99.90
4002;DHT22;2015;48.670;9.060;2023-06-19T01:58:51;21.00;99.90
4002;DHT22;2015;48.670;9.060;2023-06-19T02:01:23;21.00;99.90
4002;DHT22;2015;48.670;9.060;2023-06-19T02:03:55;21.10;99.90
4002;DHT22;2015;48.670;9.060;2023-06-19T02:06:26;21.10;99.90
4002;DHT22;2015;48.670;9.060;2023-06-19T02:08:58;21.00;99.90
4002;DHT22;2015;48.670;9.060;2023-06-19T02:11:30;21.00;99.90
4002;DHT22;2015;48.670;9.060;2023-06-19T02:14:02;21.00;99.90
4002;DHT22;2015;48.670;9.060;2023-06-19T02:16:34;21.00;99.90
4002;DHT22;2015;48.670;9.060;2023-06-19T02:19:06;21.00;99.90
4002;DHT22;2015;48.670;9.060;2023-06-19T02:21:38;21.00;99.90
4002;DHT22;2015;48.670;9.060;2023-06-19T02:24:10;21.00;99.90
4002;DHT22;2015;48.670;9.060;2023-06-19T02:26:42;21.00;99.90
4002;DHT22;2015;48.670;9.060;2023-06-19T02:29:15;21.00;99.90
4002;DHT22;2015;48.670;9.060;2023-06-19T02:31:47;21.00;99.90
4002;DHT22;2015;48.670;9.060;2023-06-19T02:34:19;20.90;99.90
4002;DHT22;2015;48.670;9.060;2023-06-19T02:36:50;20.80;99.90
4002;DHT22;2015;48.670;9.060;2023-06-19T02:39:23;20.80;99.90
4002;DHT22;2015;48.670;9.060;2023-06-19T02:41:54;20.70;99.90
4002;DHT22;2015;48.670;9.060;2023-06-19T02:44:26;20.80;99.90
4002;DHT22;2015;48.670;9.060;2023-06-19T02:46:58;20.80;99.90
4002;DHT22;2015;48.670;9.060;2023-06-19T02:49:30;20.80;99.90
4002;DHT22;2015;48.670;9.060;2023-06-19T02:52:02;20.80;99.90
4002;DHT22;2015;48.670;9.060;2023-06-19T02:54:33;20.80;99.90
4002;DHT22;2015;48.670;9.060;2023-06-19T02:57:06;20.70;99.90
4002;DHT22;2015;48.670;9.060;2023-06-19T02:59:38;20.70;99.90
4002;DHT22;2015;48.670;9.060;2023-06-19T03:02:09;20.70;99.90
4002;DHT22;2015;48.670;9.060;2023-06-19T03:04:42;20.70;99.90
4002;DHT22;2015;48.670;9.060;2023-06-19T03:07:14;20.70;99.90
4002;DHT22;2015;48.670;9.060;2023-06-19T03:09:45;20.70;99.90
4002;DHT22;2015;48.670;9.060;2023-06-19T03:12:17;20.70;99.90
4002;DHT22;2015;48.670;9.060;2023-06-19T03:14:49;20.60;99.90
4002;DHT22;2015;48.670;9.060;2023-06-19T03:17:21;20.60;99.90
4002;DHT22;2015;48.670;9.060;2023-06-19T03:19:53;20.50;99.90
4002;DHT22;2015;48.670;9.060;2023-06-19T03:22:24;20.50;99.90
4002;DHT22;2015;48.670;9.060;2023-06-19T03:24:56;20.50;99.90
4002;DHT22;2015;48.670;9.060;2023-06-19T03:27:28;20.40;99.90
4002;DHT22;2015;48.670;9.060;2023-06-19T03:30:02;20.40;99.90
4002;DHT22;2015;48.670;9.060;2023-06-19T03:32:37;20.50;99.90
4002;DHT22;2015;48.670;9.060;2023-06-19T03:35:09;20.50;99.90
4002;DHT22;2015;48.670;9.060;2023-06-19T03:37:41;20.40;99.90
4002;DHT22;2015;48.670;9.060;2023-06-19T03:40:13;20.40;99.90
4002;DHT22;2015;48.670;9.060;2023-06-19T03:42:45;20.30;99.90
4002;DHT22;2015;48.670;9.060;2023-06-19T03:45:17;20.30;99.90
4002;DHT22;2015;48.670;9.060;2023-06-19T03:47:49;20.30;99.90
4002;DHT22;2015;48.670;9.060;2023-06-19T03:50:21;20.30;99.90
4002;DHT22;2015;48.670;9.060;2023-06-19T03:52:56;20.30;99.90
4002;DHT22;2015;48.670;9.060;2023-06-19T03:55:27;20.30;99.90
4002;DHT22;2015;48.670;9.060;2023-06-19T03:57:59;20.30;99.90
4002;DHT22;2015;48.670;9.060;2023-06-19T04:00:32;20.20;99.90
4002;DHT22;2015;48.670;9.060;2023-06-19T04:03:04;20.20;99.90
4002;DHT22;2015;48.670;9.060;2023-06-19T04:05:36;20.20;99.90
4002;DHT22;2015;48.670;9.060;2023-06-19T04:08:08;20.20;99.90
4002;DHT22;2015;48.670;9.060;2023-06-19T04:10:39;20.10;99.90
4002;DHT22;2015;48.670;9.060;2023-06-19T04:13:12;20.00;99.90
4002;DHT22;2015;48.670;9.060;2023-06-19T04:15:44;19.90;99.90
4002;DHT22;2015;48.670;9.060;2023-06-19T04:18:19;19.80;99.90
4002;DHT22;2015;48.670;9.060;2023-06-19T04:20:50;19.80;99.90
4002;DHT22;2015;48.670;9.060;2023-06-19T04:23:22;19.80;99.90
4002;DHT22;2015;48.670;9.060;2023-06-19T04:25:54;19.90;99.90
4002;DHT22;2015;48.670;9.060;2023-06-19T04:28:26;19.90;99.90
4002;DHT22;2015;48.670;9.060;2023-06-19T04:30:58;19.90;99.90
4002;DHT22;2015;48.670;9.060;2023-06-19T04:33:33;19.80;99.90
4002;DHT22;2015;48.670;9.060;2023-06-19T04:36:05;19.80;99.90
4002;DHT22;2015;48.670;9.060;2023-06-19T04:38:36;19.80;99.90
4002;DHT22;2015;48.670;9.060;2023-06-19T04:41:08;19.80;99.90
4002;DHT22;2015;48.670;9.060;2023-06-19T04:43:40;19.80;99.90
4002;DHT22;2015;48.670;9.060;2023-06-19T04:46:13;19.80;99.90
4002;DHT22;2015;48.670;9.060;2023-06-19T04:48:44;19.90;99.90
4002;DHT22;2015;48.670;9.060;2023-06-19T04:51:18;19.90;99.90
4002;DHT22;2015;48.670;9.060;2023-06-19T04:53:52;20.00;99.90
4002;DHT22;2015;48.670;9.060;2023-06-19T04:56:24;20.00;99.90
4002;DHT22;2015;48.670;9.060;2023-06-19T04:58:56;20.00;99.90
4002;DHT22;2015;48.670;9.060;2023-06-19T05:01:31;20.00;99.90
4002;DHT22;2015;48.670;9.060;2023-06-19T05:04:03;20.00;99.90
4002;DHT22;2015;48.670;9.060;2023-06-19T05:06:35;20.10;99.90
4002;DHT22;2015;48.670;9.060;2023-06-19T05:09:06;20.00;99.90
4002;DHT22;2015;48.670;9.060;2023-06-19T05:11:38;20.10;99.90
4002;DHT22;2015;48.670;9.060;2023-06-19T05:14:10;20.10;99.90
4002;DHT22;2015;48.670;9.060;2023-06-19T05:16:43;20.20;99.90
4002;DHT22;2015;48.670;9.060;2023-06-19T05:19:15;20.30;99.90
4002;DHT22;2015;48.670;9.060;2023-06-19T05:21:47;20.30;99.90
4002;DHT22;2015;48.670;9.060;2023-06-19T05:24:18;20.50;99.90
4002;DHT22;2015;48.670;9.060;2023-06-19T05:26:50;20.60;99.90
4002;DHT22;2015;48.670;9.060;2023-06-19T05:29:22;20.60;99.90
4002;DHT22;2015;48.670;9.060;2023-06-19T05:31:54;20.70;99.90
4002;DHT22;2015;48.670;9.060;2023-06-19T05:34:26;20.80;99.90
4002;DHT22;2015;48.670;9.060;2023-06-19T05:37:01;20.90;99.90
4002;DHT22;2015;48.670;9.060;2023-06-19T05:39:35;21.00;99.90
4002;DHT22;2015;48.670;9.060;2023-06-19T05:42:07;21.00;99.90
4002;DHT22;2015;48.670;9.060;2023-06-19T05:44:39;21.10;99.90
4002;DHT22;2015;48.670;9.060;2023-06-19T05:47:11;21.20;99.90
4002;DHT22;2015;48.670;9.060;2023-06-19T05:49:43;21.20;99.90
4002;DHT22;2015;48.670;9.060;2023-06-19T05:52:15;21.20;99.90
4002;DHT22;2015;48.670;9.060;2023-06-19T05:54:47;21.20;99.90
4002;DHT22;2015;48.670;9.060;2023-06-19T05:57:19;21.20;99.90
4002;DHT22;2015;48.670;9.060;2023-06-19T05:59:54;21.30;99.90
4002;DHT22;2015;48.670;9.060;2023-06-19T06:02:25;21.30;99.90
4002;DHT22;2015;48.670;9.060;2023-06-19T06:05:00;21.30;99.90
4002;DHT22;2015;48.670;9.060;2023-06-19T06:07:32;21.40;99.90
4002;DHT22;2015;48.670;9.060;2023-06-19T06:10:07;21.50;99.90
4002;DHT22;2015;48.670;9.060;2023-06-19T06:12:39;21.50;99.90
4002;DHT22;2015;48.670;9.060;2023-06-19T06:15:11;21.60;99.90
4002;DHT22;2015;48.670;9.060;2023-06-19T06:17:43;21.60;99.90
4002;DHT22;2015;48.670;9.060;2023-06-19T06:20:15;21.80;99.90
4002;DHT22;2015;48.670;9.060;2023-06-19T06:22:48;21.80;99.90
4002;DHT22;2015;48.670;9.060;2023-06-19T06:25:20;21.90;99.90
4002;DHT22;2015;48.670;9.060;2023-06-19T06:27:52;22.10;99.90
4002;DHT22;2015;48.670;9.060;2023-06-19T06:30:24;22.20;99.90
4002;DHT22;2015;48.670;9.060;2023-06-19T06:32:56;22.20;99.90
4002;DHT22;2015;48.670;9.060;2023-06-19T06:35:28;22.20;99.90
4002;DHT22;2015;48.670;9.060;2023-06-19T06:38:00;22.30;99.90
4002;DHT22;2015;48.670;9.060;2023-06-19T06:40:32;22.30;99.90
4002;DHT22;2015;48.670;9.060;2023-06-19T06:43:03;22.30;99.90
4002;DHT22;2015;48.670;9.060;2023-06-19T06:45:35;22.40;99.90
4002;DHT22;2015;48.670;9.060;2023-06-19T06:48:09;22.40;99.90
4002;DHT22;2015;48.670;9.060;2023-06-19T06:50:41;22.50;99.90
4002;DHT22;2015;48.670;9.060;2023-06-19T06:53:13;22.70;99.90
4002;DHT22;2015;48.670;9.060;2023-06-19T06:55:45;22.90;99.90
4002;DHT22;2015;48.670;9.060;2023-06-19T06:58:17;22.90;99.90
4002;DHT22;2015;48.670;9.060;2023-06-19T07:00:50;23.10;99.90
4002;DHT22;2015;48.670;9.060;2023-06-19T07:03:22;23.10;99.90
4002;DHT22;2015;48.670;9.060;2023-06-19T07:05:54;23.20;99.90
4002;DHT22;2015;48.670;9.060;2023-06-19T07:08:26;23.20;99.90
4002;DHT22;2015;48.670;9.060;2023-06-19T07:10:58;23.10;99.90
4002;DHT22;2015;48.670;9.060;2023-06-19T07:13:29;23.10;99.90
4002;DHT22;2015;48.670;9.060;2023-06-19T07:16:01;23.10;99.90
4002;DHT22;2015;48.670;9.060;2023-06-19T07:18:33;23.20;99.90
4002;DHT22;2015;48.670;9.060;2023-06-19T07:21:11;23.20;99.90
4002;DHT22;2015;48.670;9.060;2023-06-19T07:23:46;23.30;99.90
4002;DHT22;2015;48.670;9.060;2023-06-19T07:26:21;23.30;99.90
4002;DHT22;2015;48.670;9.060;2023-06-19T07:28:53;23.30;99.90
4002;DHT22;2015;48.670;9.060;2023-06-19T07:31:25;23.40;99.90
4002;DHT22;2015;48.670;9.060;2023-06-19T07:33:56;23.60;99.90
4002;DHT22;2015;48.670;9.060;2023-06-19T07:36:28;23.70;99.90
4002;DHT22;2015;48.670;9.060;2023-06-19T07:39:00;23.70;99.90
4002;DHT22;2015;48.670;9.060;2023-06-19T07:41:33;23.90;99.90
4002;DHT22;2015;48.670;9.060;2023-06-19T07:44:04;24.20;99.90
4002;DHT22;2015;48.670;9.060;2023-06-19T07:46:36;24.40;99.90
4002;DHT22;2015;48.670;9.060;2023-06-19T07:49:08;24.30;99.90
4002;DHT22;2015;48.670;9.060;2023-06-19T07:51:40;24.20;99.90
4002;DHT22;2015;48.670;9.060;2023-06-19T07:54:12;24.00;99.90
4002;DHT22;2015;48.670;9.060;2023-06-19T07:56:44;23.90;99.90
4002;DHT22;2015;48.670;9.060;2023-06-19T07:59:16;23.90;99.90
4002;DHT22;2015;48.670;9.060;2023-06-19T08:01:48;24.00;99.90
4002;DHT22;2015;48.670;9.060;2023-06-19T08:04:20;24.20;99.90
4002;DHT22;2015;48.670;9.060;2023-06-19T08:06:52;24.30;99.90
4002;DHT22;2015;48.670;9.060;2023-06-19T08:09:24;24.40;99.90
4002;DHT22;2015;48.670;9.060;2023-06-19T08:11:56;24.50;99.90
4002;DHT22;2015;48.670;9.060;2023-06-19T08:14:28;24.80;99.90
4002;DHT22;2015;48.670;9.060;2023-06-19T08:17:00;24.80;99.90
4002;DHT22;2015;48.670;9.060;2023-06-19T08:19:32;24.90;99.90
4002;DHT22;2015;48.670;9.060;2023-06-19T08:22:05;24.90;99.90
4002;DHT22;2015;48.670;9.060;2023-06-19T08:24:37;24.90;99.90
4002;DHT22;2015;48.670;9.060;2023-06-19T08:27:10;25.00;99.90
4002;DHT22;2015;48.670;9.060;2023-06-19T08:29:42;25.20;99.90
4002;DHT22;2015;48.670;9.060;2023-06-19T08:32:14;25.80;99.90
4002;DHT22;2015;48.670;9.060;2023-06-19T08:34:46;26.50;99.90
4002;DHT22;2015;48.670;9.060;2023-06-19T08:37:18;27.20;99.90
4002;DHT22;2015;48.670;9.060;2023-06-19T08:39:50;27.60;99.90
4002;DHT22;2015;48.670;9.060;2023-06-19T08:42:22;28.80;99.90
4002;DHT22;2015;48.670;9.060;2023-06-19T08:44:54;30.40;98.00
4002;DHT22;2015;48.670;9.060;2023-06-19T08:47:31;30.80;97.50
4002;DHT22;2015;48.670;9.060;2023-06-19T08:50:04;31.40;97.10
4002;DHT22;2015;48.670;9.060;2023-06-19T08:52:36;32.00;94.20
4002;DHT22;2015;48.670;9.060;2023-06-19T08:55:08;32.40;93.30
4002;DHT22;2015;48.670;9.060;2023-06-19T08:57:40;32.20;91.90
4002;DHT22;2015;48.670;9.060;2023-06-19T09:00:23;30.80;92.70
4002;DHT22;2015;48.670;9.060;2023-06-19T09:03:02;29.20;95.00
4002;DHT22;2015;48.670;9.060;2023-06-19T09:05:44;27.90;97.10
4002;DHT22;2015;48.670;9.060;2023-06-19T09:08:22;26.90;98.20
4002;DHT22;2015;48.670;9.060;2023-06-19T09:10:59;26.50;99.80
4002;DHT22;2015;48.670;9.060;2023-06-19T09:13:32;26.20;99.90
4002;DHT22;2015;48.670;9.060;2023-06-19T09:16:07;26.00;99.90
4002;DHT22;2015;48.670;9.060;2023-06-19T09:18:44;26.00;99.90
4002;DHT22;2015;48.670;9.060;2023-06-19T09:21:21;25.90;99.90
4002;DHT22;2015;48.670;9.060;2023-06-19T09:24:06;25.80;99.90
4002;DHT22;2015;48.670;9.060;2023-06-19T09:26:38;25.60;99.90
4002;DHT22;2015;48.670;9.060;2023-06-19T09:29:11;25.50;99.90
4002;DHT22;2015;48.670;9.060;2023-06-19T09:31:47;25.60;99.90
4002;DHT22;2015;48.670;9.060;2023-06-19T09:34:19;25.80;99.90
4002;DHT22;2015;48.670;9.060;2023-06-19T09:36:51;26.20;99.90
4002;DHT22;2015;48.670;9.060;2023-06-19T09:39:25;26.80;99.90
4002;DHT22;2015;48.670;9.060;2023-06-19T09:41:59;27.30;99.90
4002;DHT22;2015;48.670;9.060;2023-06-19T09:44:41;28.40;99.70
4002;DHT22;2015;48.670;9.060;2023-06-19T09:47:22;30.20;97.10
4002;DHT22;2015;48.670;9.060;2023-06-19T09:49:56;31.60;95.00
4002;DHT22;2015;48.670;9.060;2023-06-19T09:52:28;32.90;92.50
4002;DHT22;2015;48.670;9.060;2023-06-19T09:55:03;33.80;90.80
4002;DHT22;2015;48.670;9.060;2023-06-19T09:57:36;34.20;89.10
4002;DHT22;2015;48.670;9.060;2023-06-19T10:00:10;34.90;84.60
4002;DHT22;2015;48.670;9.060;2023-06-19T10:02:49;35.00;81.80
4002;DHT22;2015;48.670;9.060;2023-06-19T10:05:31;34.60;83.30
4002;DHT22;2015;48.670;9.060;2023-06-19T10:08:04;35.10;82.10
4002;DHT22;2015;48.670;9.060;2023-06-19T10:10:46;35.90;78.80
4002;DHT22;2015;48.670;9.060;2023-06-19T10:13:18;36.30;76.10
4002;DHT22;2015;48.670;9.060;2023-06-19T10:15:50;36.00;76.80
4002;DHT22;2015;48.670;9.060;2023-06-19T10:18:22;36.30;75.80
4002;DHT22;2015;48.670;9.060;2023-06-19T10:20:56;36.10;74.60
4002;DHT22;2015;48.670;9.060;2023-06-19T10:23:36;35.70;74.70
4002;DHT22;2015;48.670;9.060;2023-06-19T10:26:08;35.40;74.90
4002;DHT22;2015;48.670;9.060;2023-06-19T10:28:46;35.30;74.10
4002;DHT22;2015;48.670;9.060;2023-06-19T10:31:18;35.20;75.00
4002;DHT22;2015;48.670;9.060;2023-06-19T10:33:50;35.30;74.00
4002;DHT22;2015;48.670;9.060;2023-06-19T10:36:22;35.60;73.30
4002;DHT22;2015;48.670;9.060;2023-06-19T10:38:57;35.40;74.40
4002;DHT22;2015;48.670;9.060;2023-06-19T10:41:28;35.20;72.80
4002;DHT22;2015;48.670;9.060;2023-06-19T10:44:07;34.70;75.40
4002;DHT22;2015;48.670;9.060;2023-06-19T10:46:44;34.70;73.50
4002;DHT22;2015;48.670;9.060;2023-06-19T10:49:16;34.00;75.00
4002;DHT22;2015;48.670;9.060;2023-06-19T10:51:49;33.30;79.00
4002;DHT22;2015;48.670;9.060;2023-06-19T10:54:21;33.90;78.30
4002;DHT22;2015;48.670;9.060;2023-06-19T10:56:53;34.60;78.90
4002;DHT22;2015;48.670;9.060;2023-06-19T10:59:26;33.80;77.30
4002;DHT22;2015;48.670;9.060;2023-06-19T11:01:57;33.40;80.00
4002;DHT22;2015;48.670;9.060;2023-06-19T11:04:30;32.70;82.70
4002;DHT22;2015;48.670;9.060;2023-06-19T11:07:04;31.60;83.20
4002;DHT22;2015;48.670;9.060;2023-06-19T11:09:36;31.20;84.00
4002;DHT22;2015;48.670;9.060;2023-06-19T11:12:08;30.60;85.90
4002;DHT22;2015;48.670;9.060;2023-06-19T11:14:40;30.20;86.30
4002;DHT22;2015;48.670;9.060;2023-06-19T11:17:14;29.80;88.50
4002;DHT22;2015;48.670;9.060;2023-06-19T11:19:46;29.40;89.20
4002;DHT22;2015;48.670;9.060;2023-06-19T11:22:18;29.10;90.00
4002;DHT22;2015;48.670;9.060;2023-06-19T11:24:50;28.90;90.40
4002;DHT22;2015;48.670;9.060;2023-06-19T11:27:23;28.80;91.20
4002;DHT22;2015;48.670;9.060;2023-06-19T11:30:00;29.00;91.40
4002;DHT22;2015;48.670;9.060;2023-06-19T11:32:34;28.90;91.90
4002;DHT22;2015;48.670;9.060;2023-06-19T11:35:12;29.10;92.10
4002;DHT22;2015;48.670;9.060;2023-06-19T11:37:44;29.10;92.10
4002;DHT22;2015;48.670;9.060;2023-06-19T11:40:16;28.80;92.40
4002;DHT22;2015;48.670;9.060;2023-06-19T11:42:53;28.60;92.80
4002;DHT22;2015;48.670;9.060;2023-06-19T11:45:25;28.50;93.10
4002;DHT22;2015;48.670;9.060;2023-06-19T11:47:57;28.20;93.20
4002;DHT22;2015;48.670;9.060;2023-06-19T11:50:29;28.00;93.10
4002;DHT22;2015;48.670;9.060;2023-06-19T11:53:01;27.80;94.30
4002;DHT22;2015;48.670;9.060;2023-06-19T11:55:33;27.80;94.20
4002;DHT22;2015;48.670;9.060;2023-06-19T11:58:06;27.80;94.00
4002;DHT22;2015;48.670;9.060;2023-06-19T12:00:37;28.00;94.30
4002;DHT22;2015;48.670;9.060;2023-06-19T12:03:09;28.20;93.00
4002;DHT22;2015;48.670;9.060;2023-06-19T12:05:41;28.40;92.40
4002;DHT22;2015;48.670;9.060;2023-06-19T12:08:13;28.50;93.40
4002;DHT22;2015;48.670;9.060;2023-06-19T12:10:46;28.60;93.50
4002;DHT22;2015;48.670;9.060;2023-06-19T12:13:17;28.70;93.00
4002;DHT22;2015;48.670;9.060;2023-06-19T12:15:49;28.60;93.30
4002;DHT22;2015;48.670;9.060;2023-06-19T12:18:24;28.70;91.80
4002;DHT22;2015;48.670;9.060;2023-06-19T12:20:56;28.90;91.90
4002;DHT22;2015;48.670;9.060;2023-06-19T12:23:28;29.10;91.60
4002;DHT22;2015;48.670;9.060;2023-06-19T12:25:59;29.10;92.60
4002;DHT22;2015;48.670;9.060;2023-06-19T12:28:31;29.20;92.10
4002;DHT22;2015;48.670;9.060;2023-06-19T12:31:03;29.00;92.40
4002;DHT22;2015;48.670;9.060;2023-06-19T12:33:35;29.00;91.80
4002;DHT22;2015;48.670;9.060;2023-06-19T12:36:12;29.10;91.10
4002;DHT22;2015;48.670;9.060;2023-06-19T12:38:44;29.30;90.90
4002;DHT22;2015;48.670;9.060;2023-06-19T12:41:16;29.30;91.00
4002;DHT22;2015;48.670;9.060;2023-06-19T12:43:48;29.30;90.70
4002;DHT22;2015;48.670;9.060;2023-06-19T12:46:20;29.50;90.20
4002;DHT22;2015;48.670;9.060;2023-06-19T12:48:52;29.40;90.20
4002;DHT22;2015;48.670;9.060;2023-06-19T12:51:24;29.40;89.90
4002;DHT22;2015;48.670;9.060;2023-06-19T12:53:56;29.30;90.30
4002;DHT22;2015;48.670;9.060;2023-06-19T12:56:28;29.40;89.80
4002;DHT22;2015;48.670;9.060;2023-06-19T12:59:01;29.20;90.40
4002;DHT22;2015;48.670;9.060;2023-06-19T13:01:32;28.90;90.40
4002;DHT22;2015;48.670;9.060;2023-06-19T13:04:04;28.90;90.40
4002;DHT22;2015;48.670;9.060;2023-06-19T13:06:36;29.20;90.50
4002;DHT22;2015;48.670;9.060;2023-06-19T13:09:08;29.50;90.20
4002;DHT22;2015;48.670;9.060;2023-06-19T13:11:40;29.70;89.80
4002;DHT22;2015;48.670;9.060;2023-06-19T13:14:12;29.60;90.10
4002;DHT22;2015;48.670;9.060;2023-06-19T13:16:44;29.70;90.30
4002;DHT22;2015;48.670;9.060;2023-06-19T13:19:18;29.70;89.90
4002;DHT22;2015;48.670;9.060;2023-06-19T13:21:51;29.80;88.70
4002;DHT22;2015;48.670;9.060;2023-06-19T13:24:22;29.90;88.30
4002;DHT22;2015;48.670;9.060;2023-06-19T13:26:55;29.70;89.50
4002;DHT22;2015;48.670;9.060;2023-06-19T13:29:27;29.50;89.10
4002;DHT22;2015;48.670;9.060;2023-06-19T13:31:59;29.60;88.40
4002;DHT22;2015;48.670;9.060;2023-06-19T13:34:31;29.70;88.10
4002;DHT22;2015;48.670;9.060;2023-06-19T13:37:03;29.50;87.80
4002;DHT22;2015;48.670;9.060;2023-06-19T13:39:35;29.30;88.80
4002;DHT22;2015;48.670;9.060;2023-06-19T13:42:07;29.20;88.10
4002;DHT22;2015;48.670;9.060;2023-06-19T13:44:39;29.00;90.20
4002;DHT22;2015;48.670;9.060;2023-06-19T13:47:11;28.70;90.00
4002;DHT22;2015;48.670;9.060;2023-06-19T13:49:43;28.70;90.50
4002;DHT22;2015;48.670;9.060;2023-06-19T13:52:15;28.90;90.80
4002;DHT22;2015;48.670;9.060;2023-06-19T13:54:46;28.80;91.20
4002;DHT22;2015;48.670;9.060;2023-06-19T13:57:18;28.70;91.90
4002;DHT22;2015;48.670;9.060;2023-06-19T13:59:50;28.70;91.60
4002;DHT22;2015;48.670;9.060;2023-06-19T14:02:22;28.50;91.30
4002;DHT22;2015;48.670;9.060;2023-06-19T14:04:54;28.60;91.50
4002;DHT22;2015;48.670;9.060;2023-06-19T14:07:25;28.70;91.00
4002;DHT22;2015;48.670;9.060;2023-06-19T14:09:58;28.90;90.80
4002;DHT22;2015;48.670;9.060;2023-06-19T14:12:30;29.00;90.00
4002;DHT22;2015;48.670;9.060;2023-06-19T14:15:02;29.00;89.00
4002;DHT22;2015;48.670;9.060;2023-06-19T14:17:34;28.80;90.50
4002;DHT22;2015;48.670;9.060;2023-06-19T14:20:07;28.70;90.40
4002;DHT22;2015;48.670;9.060;2023-06-19T14:22:39;28.50;90.20
4002;DHT22;2015;48.670;9.060;2023-06-19T14:25:11;28.70;90.20
4002;DHT22;2015;48.670;9.060;2023-06-19T14:27:44;28.90;90.00
4002;DHT22;2015;48.670;9.060;2023-06-19T14:30:15;28.90;88.70
4002;DHT22;2015;48.670;9.060;2023-06-19T14:32:48;28.60;90.00
4002;DHT22;2015;48.670;9.060;2023-06-19T14:35:20;28.30;90.00
4002;DHT22;2015;48.670;9.060;2023-06-19T14:37:51;28.20;91.50
4002;DHT22;2015;48.670;9.060;2023-06-19T14:40:23;28.10;91.80
4002;DHT22;2015;48.670;9.060;2023-06-19T14:42:56;28.00;92.00
4002;DHT22;2015;48.670;9.060;2023-06-19T14:45:27;27.90;91.90
4002;DHT22;2015;48.670;9.060;2023-06-19T14:47:59;27.90;92.10
4002;DHT22;2015;48.670;9.060;2023-06-19T14:50:31;27.90;92.10
4002;DHT22;2015;48.670;9.060;2023-06-19T14:53:03;28.10;91.00
4002;DHT22;2015;48.670;9.060;2023-06-19T14:55:35;28.30;91.50
4002;DHT22;2015;48.670;9.060;2023-06-19T14:58:06;28.40;91.00
4002;DHT22;2015;48.670;9.060;2023-06-19T15:00:39;28.40;91.90
4002;DHT22;2015;48.670;9.060;2023-06-19T15:03:11;28.40;91.50
4002;DHT22;2015;48.670;9.060;2023-06-19T15:05:43;28.40;91.60
4002;DHT22;2015;48.670;9.060;2023-06-19T15:08:15;28.70;90.00
4002;DHT22;2015;48.670;9.060;2023-06-19T15:10:52;29.00;89.20
4002;DHT22;2015;48.670;9.060;2023-06-19T15:13:24;29.40;88.00
4002;DHT22;2015;48.670;9.060;2023-06-19T15:15:56;29.50;87.40
4002;DHT22;2015;48.670;9.060;2023-06-19T15:18:29;29.50;86.80
4002;DHT22;2015;48.670;9.060;2023-06-19T15:21:01;29.40;87.20
4002;DHT22;2015;48.670;9.060;2023-06-19T15:23:33;29.40;87.00
4002;DHT22;2015;48.670;9.060;2023-06-19T15:26:05;29.30;88.50
4002;DHT22;2015;48.670;9.060;2023-06-19T15:28:40;29.40;87.60
4002;DHT22;2015;48.670;9.060;2023-06-19T15:31:12;29.10;88.80
4002;DHT22;2015;48.670;9.060;2023-06-19T15:33:43;28.80;87.50
4002;DHT22;2015;48.670;9.060;2023-06-19T15:36:16;28.90;87.80
4002;DHT22;2015;48.670;9.060;2023-06-19T15:38:48;29.10;88.20
4002;DHT22;2015;48.670;9.060;2023-06-19T15:41:20;29.20;86.40
4002;DHT22;2015;48.670;9.060;2023-06-19T15:43:51;29.20;86.50
4002;DHT22;2015;48.670;9.060;2023-06-19T15:46:23;29.20;85.80
4002;DHT22;2015;48.670;9.060;2023-06-19T15:48:55;29.20;87.50
4002;DHT22;2015;48.670;9.060;2023-06-19T15:51:27;29.20;87.20
4002;DHT22;2015;48.670;9.060;2023-06-19T15:53:59;29.20;86.50
4002;DHT22;2015;48.670;9.060;2023-06-19T15:56:30;29.00;85.70
4002;DHT22;2015;48.670;9.060;2023-06-19T15:59:02;29.10;86.20
4002;DHT22;2015;48.670;9.060;2023-06-19T16:01:34;29.00;86.80
4002;DHT22;2015;48.670;9.060;2023-06-19T16:04:06;28.80;88.50
4002;DHT22;2015;48.670;9.060;2023-06-19T16:06:38;28.70;87.50
4002;DHT22;2015;48.670;9.060;2023-06-19T16:09:12;28.80;86.40
4002;DHT22;2015;48.670;9.060;2023-06-19T16:11:44;28.80;86.10
4002;DHT22;2015;48.670;9.060;2023-06-19T16:14:18;28.90;87.90
4002;DHT22;2015;48.670;9.060;2023-06-19T16:16:50;28.70;86.90
4002;DHT22;2015;48.670;9.060;2023-06-19T16:19:21;28.70;84.30
4002;DHT22;2015;48.670;9.060;2023-06-19T16:21:53;28.60;84.80
4002;DHT22;2015;48.670;9.060;2023-06-19T16:24:25;28.50;85.70
4002;DHT22;2015;48.670;9.060;2023-06-19T16:26:57;28.50;85.40
4002;DHT22;2015;48.670;9.060;2023-06-19T16:29:29;28.50;85.80
4002;DHT22;2015;48.670;9.060;2023-06-19T16:32:01;28.50;85.50
4002;DHT22;2015;48.670;9.060;2023-06-19T16:34:41;28.60;85.80
4002;DHT22;2015;48.670;9.060;2023-06-19T16:37:13;28.50;85.10
4002;DHT22;2015;48.670;9.060;2023-06-19T16:39:44;28.50;86.70